sensor_id;sensor_type;location;lat;lon;timestamp;pressure;altitude;pressure_sealevel;temperature
18161;BMP280;9205;52.032;4.314;2022-09-12T00:01:31;101676.75;;;19.02
18161;BMP280;9205;52.032;4.314;2022-09-12T00:04:00;101678.50;;;19.02
18161;BMP280;9205;52.032;4.314;2022-09-12T00:06:30;101674.25;;;19.01
18161;BMP280;9205;52.032;4.314;2022-09-12T00:09:00;101668.34;;;18.99
18161;BMP280;9205;52.032;4.314;2022-09-12T00:11:28;101676.91;;;18.99
18161;BMP280;9205;52.032;4.314;2022-09-12T00:13:59;101664.09;;;18.98
18161;BMP280;9205;52.032;4.314;2022-09-12T00:16:30;101667.63;;;18.95
18161;BMP280;9205;52.032;4.314;2022-09-12T00:18:58;101670.97;;;18.97
18161;BMP280;9205;52.032;4.314;2022-09-12T00:21:26;101666.81;;;18.95
18161;BMP280;9205;52.032;4.314;2022-09-12T00:23:54;101672.69;;;18.97
18161;BMP280;9205;52.032;4.314;2022-09-12T00:26:21;101665.75;;;18.99
18161;BMP280;9205;52.032;4.314;2022-09-12T00:28:49;101667.44;;;19.00
18161;BMP280;9205;52.032;4.314;2022-09-12T00:31:22;101666.63;;;18.99
18161;BMP280;9205;52.032;4.314;2022-09-12T00:33:50;101658.88;;;18.99
18161;BMP280;9205;52.032;4.314;2022-09-12T00:36:22;101669.94;;;19.01
18161;BMP280;9205;52.032;4.314;2022-09-12T00:38:50;101649.28;;;19.03
18161;BMP280;9205;52.032;4.314;2022-09-12T00:41:22;101646.72;;;19.03
18161;BMP280;9205;52.032;4.314;2022-09-12T00:43:52;101656.13;;;19.04
18161;BMP280;9205;52.032;4.314;2022-09-12T00:46:33;101653.47;;;19.05
18161;BMP280;9205;52.032;4.314;2022-09-12T00:49:05;101650.03;;;19.05
18161;BMP280;9205;52.032;4.314;2022-09-12T00:51:35;101646.56;;;19.06
18161;BMP280;9205;52.032;4.314;2022-09-12T00:54:07;101645.75;;;19.05
18161;BMP280;9205;52.032;4.314;2022-09-12T00:56:38;101637.94;;;19.07
18161;BMP280;9205;52.032;4.314;2022-09-12T00:59:12;101636.34;;;19.04
18161;BMP280;9205;52.032;4.314;2022-09-12T01:01:47;101636.25;;;19.06
18161;BMP280;9205;52.032;4.314;2022-09-12T01:04:19;101632.00;;;19.05
18161;BMP280;9205;52.032;4.314;2022-09-12T01:06:49;101630.28;;;19.05
18161;BMP280;9205;52.032;4.314;2022-09-12T01:09:21;101629.44;;;19.05
18161;BMP280;9205;52.032;4.314;2022-09-12T01:11:50;101626.84;;;19.05
18161;BMP280;9205;52.032;4.314;2022-09-12T01:14:20;101626.84;;;19.05
18161;BMP280;9205;52.032;4.314;2022-09-12T01:16:49;101627.78;;;19.04
18161;BMP280;9205;52.032;4.314;2022-09-12T01:19:43;101626.13;;;19.03
18161;BMP280;9205;52.032;4.314;2022-09-12T01:22:42;101628.03;;;18.98
18161;BMP280;9205;52.032;4.314;2022-09-12T01:25:26;101628.03;;;18.98
18161;BMP280;9205;52.032;4.314;2022-09-12T01:28:22;101626.34;;;18.97
18161;BMP280;9205;52.032;4.314;2022-09-12T01:31:04;101617.03;;;18.94
18161;BMP280;9205;52.032;4.314;2022-09-12T01:33:51;101616.06;;;18.97
18161;BMP280;9205;52.032;4.314;2022-09-12T01:36:35;101617.72;;;18.98
18161;BMP280;9205;52.032;4.314;2022-09-12T01:39:08;101611.06;;;18.94
18161;BMP280;9205;52.032;4.314;2022-09-12T01:41:48;101611.06;;;18.94
18161;BMP280;9205;52.032;4.314;2022-09-12T01:44:30;101614.47;;;18.94
18161;BMP280;9205;52.032;4.314;2022-09-12T01:47:05;101608.41;;;18.95
18161;BMP280;9205;52.032;4.314;2022-09-12T01:49:40;101606.69;;;18.96
18161;BMP280;9205;52.032;4.314;2022-09-12T01:52:18;101602.28;;;18.98
18161;BMP280;9205;52.032;4.314;2022-09-12T01:54:52;101602.44;;;18.95
18161;BMP280;9205;52.032;4.314;2022-09-12T01:57:28;101595.47;;;18.97
18161;BMP280;9205;52.032;4.314;2022-09-12T02:00:03;101590.50;;;18.92
18161;BMP280;9205;52.032;4.314;2022-09-12T02:02:44;101591.44;;;18.91
18161;BMP280;9205;52.032;4.314;2022-09-12T02:05:22;101588.00;;;18.91
18161;BMP280;9205;52.032;4.314;2022-09-12T02:08:01;101581.06;;;18.93
18161;BMP280;9205;52.032;4.314;2022-09-12T02:10:33;101581.88;;;18.93
18161;BMP280;9205;52.032;4.314;2022-09-12T02:13:09;101571.53;;;18.95
18161;BMP280;9205;52.032;4.314;2022-09-12T02:15:42;101567.28;;;18.94
18161;BMP280;9205;52.032;4.314;2022-09-12T02:18:15;101566.31;;;18.96
18161;BMP280;9205;52.032;4.314;2022-09-12T02:20:46;101571.38;;;18.98
18161;BMP280;9205;52.032;4.314;2022-09-12T02:23:19;101562.84;;;18.97
18161;BMP280;9205;52.032;4.314;2022-09-12T02:25:53;101561.94;;;18.98
18161;BMP280;9205;52.032;4.314;2022-09-12T02:28:26;101567.84;;;19.00
18161;BMP280;9205;52.032;4.314;2022-09-12T02:31:06;101546.34;;;19.01
18161;BMP280;9205;52.032;4.314;2022-09-12T02:33:47;101552.25;;;19.03
18161;BMP280;9205;52.032;4.314;2022-09-12T02:36:29;101561.78;;;19.01
18161;BMP280;9205;52.032;4.314;2022-09-12T02:38:59;101559.97;;;19.03
18161;BMP280;9205;52.032;4.314;2022-09-12T02:41:27;101551.38;;;19.04
18161;BMP280;9205;52.032;4.314;2022-09-12T02:43:54;101552.97;;;19.07
18161;BMP280;9205;52.032;4.314;2022-09-12T02:46:31;101553.84;;;19.06
18161;BMP280;9205;52.032;4.314;2022-09-12T02:49:00;101552.06;;;19.08
18161;BMP280;9205;52.032;4.314;2022-09-12T02:51:28;101553.69;;;19.10
18161;BMP280;9205;52.032;4.314;2022-09-12T02:53:56;101548.47;;;19.12
18161;BMP280;9205;52.032;4.314;2022-09-12T02:56:29;101548.34;;;19.15
18161;BMP280;9205;52.032;4.314;2022-09-12T02:59:01;101550.91;;;19.15
18161;BMP280;9205;52.032;4.314;2022-09-12T03:01:52;101542.28;;;19.16
18161;BMP280;9205;52.032;4.314;2022-09-12T03:04:44;101542.19;;;19.17
18161;BMP280;9205;52.032;4.314;2022-09-12T03:07:24;101531.91;;;19.17
18161;BMP280;9205;52.032;4.314;2022-09-12T03:10:02;101537.75;;;19.21
18161;BMP280;9205;52.032;4.314;2022-09-12T03:12:46;101536.16;;;19.18
18161;BMP280;9205;52.032;4.314;2022-09-12T03:15:42;101535.16;;;19.21
18161;BMP280;9205;52.032;4.314;2022-09-12T03:18:26;101524.03;;;19.20
18161;BMP280;9205;52.032;4.314;2022-09-12T03:21:03;101522.38;;;19.19
18161;BMP280;9205;52.032;4.314;2022-09-12T03:23:43;101533.50;;;19.20
18161;BMP280;9205;52.032;4.314;2022-09-12T03:26:20;101530.91;;;19.20
18161;BMP280;9205;52.032;4.314;2022-09-12T03:28:52;101533.44;;;19.21
18161;BMP280;9205;52.032;4.314;2022-09-12T03:31:21;101525.75;;;19.20
18161;BMP280;9205;52.032;4.314;2022-09-12T03:33:48;101518.97;;;19.19
18161;BMP280;9205;52.032;4.314;2022-09-12T03:36:21;101531.91;;;19.17
18161;BMP280;9205;52.032;4.314;2022-09-12T03:38:49;101520.91;;;19.14
18161;BMP280;9205;52.032;4.314;2022-09-12T03:41:16;101522.69;;;19.12
18161;BMP280;9205;52.032;4.314;2022-09-12T03:43:43;101534.69;;;19.13
18161;BMP280;9205;52.032;4.314;2022-09-12T03:46:11;101519.38;;;19.10
18161;BMP280;9205;52.032;4.314;2022-09-12T03:48:38;101520.38;;;19.06
18161;BMP280;9205;52.032;4.314;2022-09-12T03:51:08;101529.09;;;19.03
18161;BMP280;9205;52.032;4.314;2022-09-12T03:53:37;101520.66;;;19.00
18161;BMP280;9205;52.032;4.314;2022-09-12T03:56:09;101524.16;;;18.99
18161;BMP280;9205;52.032;4.314;2022-09-12T03:58:37;101519.91;;;18.98
18161;BMP280;9205;52.032;4.314;2022-09-12T04:01:08;101523.38;;;18.97
18161;BMP280;9205;52.032;4.314;2022-09-12T04:03:38;101521.00;;;18.92
18161;BMP280;9205;52.032;4.314;2022-09-12T04:06:09;101523.66;;;18.91
18161;BMP280;9205;52.032;4.314;2022-09-12T04:08:38;101520.31;;;18.89
18161;BMP280;9205;52.032;4.314;2022-09-12T04:11:07;101513.44;;;18.89
18161;BMP280;9205;52.032;4.314;2022-09-12T04:13:35;101513.63;;;18.85
18161;BMP280;9205;52.032;4.314;2022-09-12T04:16:03;101508.59;;;18.82
18161;BMP280;9205;52.032;4.314;2022-09-12T04:18:31;101510.44;;;18.80
18161;BMP280;9205;52.032;4.314;2022-09-12T04:21:02;101524.22;;;18.79
18161;BMP280;9205;52.032;4.314;2022-09-12T04:23:29;101528.59;;;18.77
18161;BMP280;9205;52.032;4.314;2022-09-12T04:26:00;101520.97;;;18.74
18161;BMP280;9205;52.032;4.314;2022-09-12T04:28:29;101517.72;;;18.71
18161;BMP280;9205;52.032;4.314;2022-09-12T04:31:01;101522.94;;;18.69
18161;BMP280;9205;52.032;4.314;2022-09-12T04:33:29;101522.13;;;18.69
18161;BMP280;9205;52.032;4.314;2022-09-12T04:36:03;101515.28;;;18.68
18161;BMP280;9205;52.032;4.314;2022-09-12T04:38:31;101527.38;;;18.66
18161;BMP280;9205;52.032;4.314;2022-09-12T04:40:59;101524.88;;;18.64
18161;BMP280;9205;52.032;4.314;2022-09-12T04:43:27;101522.34;;;18.63
18161;BMP280;9205;52.032;4.314;2022-09-12T04:45:54;101535.28;;;18.61
18161;BMP280;9205;52.032;4.314;2022-09-12T04:48:21;101519.94;;;18.60
18161;BMP280;9205;52.032;4.314;2022-09-12T04:50:48;101521.81;;;18.56
18161;BMP280;9205;52.032;4.314;2022-09-12T04:53:15;101519.28;;;18.55
18161;BMP280;9205;52.032;4.314;2022-09-12T04:55:42;101519.44;;;18.52
18161;BMP280;9205;52.032;4.314;2022-09-12T04:58:10;101516.91;;;18.50
18161;BMP280;9205;52.032;4.314;2022-09-12T05:00:37;101515.25;;;18.49
18161;BMP280;9205;52.032;4.314;2022-09-12T05:03:05;101517.84;;;18.49
18161;BMP280;9205;52.032;4.314;2022-09-12T05:05:32;101519.63;;;18.47
18161;BMP280;9205;52.032;4.314;2022-09-12T05:07:59;101510.13;;;18.49
18161;BMP280;9205;52.032;4.314;2022-09-12T05:10:26;101515.38;;;18.46
18161;BMP280;9205;52.032;4.314;2022-09-12T05:12:53;101514.56;;;18.46
18161;BMP280;9205;52.032;4.314;2022-09-12T05:15:22;101507.84;;;18.42
18161;BMP280;9205;52.032;4.314;2022-09-12T05:17:49;101506.19;;;18.41
18161;BMP280;9205;52.032;4.314;2022-09-12T05:20:17;101504.66;;;18.37
18161;BMP280;9205;52.032;4.314;2022-09-12T05:22:44;101502.91;;;18.37
18161;BMP280;9205;52.032;4.314;2022-09-12T05:25:11;101505.56;;;18.36
18161;BMP280;9205;52.032;4.314;2022-09-12T05:27:38;101491.03;;;18.35
18161;BMP280;9205;52.032;4.314;2022-09-12T05:30:07;101486.78;;;18.34
18161;BMP280;9205;52.032;4.314;2022-09-12T05:32:36;101488.53;;;18.33
18161;BMP280;9205;52.032;4.314;2022-09-12T05:35:04;101485.88;;;18.35
18161;BMP280;9205;52.032;4.314;2022-09-12T05:37:31;101485.06;;;18.34
18161;BMP280;9205;52.032;4.314;2022-09-12T05:39:58;101492.78;;;18.34
18161;BMP280;9205;52.032;4.314;2022-09-12T05:42:29;101502.31;;;18.31
18161;BMP280;9205;52.032;4.314;2022-09-12T05:44:56;101503.25;;;18.30
18161;BMP280;9205;52.032;4.314;2022-09-12T05:47:23;101498.16;;;18.28
18161;BMP280;9205;52.032;4.314;2022-09-12T05:49:51;101507.53;;;18.29
18161;BMP280;9205;52.032;4.314;2022-09-12T05:52:19;101510.09;;;18.29
18161;BMP280;9205;52.032;4.314;2022-09-12T05:54:47;101508.44;;;18.28
18161;BMP280;9205;52.032;4.314;2022-09-12T05:57:14;101511.91;;;18.27
18161;BMP280;9205;52.032;4.314;2022-09-12T05:59:41;101504.19;;;18.27
18161;BMP280;9205;52.032;4.314;2022-09-12T06:02:10;101502.47;;;18.28
18161;BMP280;9205;52.032;4.314;2022-09-12T06:04:38;101500.88;;;18.25
18161;BMP280;9205;52.032;4.314;2022-09-12T06:07:08;101504.19;;;18.27
18161;BMP280;9205;52.032;4.314;2022-09-12T06:09:35;101503.25;;;18.30
18161;BMP280;9205;52.032;4.314;2022-09-12T06:12:03;101499.72;;;18.32
18161;BMP280;9205;52.032;4.314;2022-09-12T06:14:32;101494.47;;;18.34
18161;BMP280;9205;52.032;4.314;2022-09-12T06:16:59;101493.50;;;18.36
18161;BMP280;9205;52.032;4.314;2022-09-12T06:19:26;101498.66;;;18.36
18161;BMP280;9205;52.032;4.314;2022-09-12T06:21:53;101487.47;;;18.37
18161;BMP280;9205;52.032;4.314;2022-09-12T06:24:22;101498.53;;;18.39
18161;BMP280;9205;52.032;4.314;2022-09-12T06:26:50;101496.75;;;18.41
18161;BMP280;9205;52.032;4.314;2022-09-12T06:29:18;101491.59;;;18.41
18161;BMP280;9205;52.032;4.314;2022-09-12T06:31:45;101495.06;;;18.40
18161;BMP280;9205;52.032;4.314;2022-09-12T06:34:14;101499.13;;;18.46
18161;BMP280;9205;52.032;4.314;2022-09-12T06:36:44;101492.09;;;18.49
18161;BMP280;9205;52.032;4.314;2022-09-12T06:39:13;101489.25;;;18.55
18161;BMP280;9205;52.032;4.314;2022-09-12T06:41:43;101495.19;;;18.57
18161;BMP280;9205;52.032;4.314;2022-09-12T06:44:13;101495.88;;;18.61
18161;BMP280;9205;52.032;4.314;2022-09-12T06:46:41;101495.81;;;18.62
18161;BMP280;9205;52.032;4.314;2022-09-12T06:49:09;101498.28;;;18.64
18161;BMP280;9205;52.032;4.314;2022-09-12T06:51:36;101502.34;;;18.69
18161;BMP280;9205;52.032;4.314;2022-09-12T06:54:04;101502.22;;;18.72
18161;BMP280;9205;52.032;4.314;2022-09-12T06:56:31;101498.59;;;18.76
18161;BMP280;9205;52.032;4.314;2022-09-12T06:59:00;101498.47;;;18.79
18161;BMP280;9205;52.032;4.314;2022-09-12T07:01:29;101506.19;;;18.79
18161;BMP280;9205;52.032;4.314;2022-09-12T07:03:59;101503.47;;;18.82
18161;BMP280;9205;52.032;4.314;2022-09-12T07:06:29;101505.91;;;18.85
18161;BMP280;9205;52.032;4.314;2022-09-12T07:08:58;101507.59;;;18.86
18161;BMP280;9205;52.032;4.314;2022-09-12T07:11:28;101503.91;;;18.91
18161;BMP280;9205;52.032;4.314;2022-09-12T07:14:00;101509.88;;;18.92
18161;BMP280;9205;52.032;4.314;2022-09-12T07:16:29;101510.69;;;18.92
18161;BMP280;9205;52.032;4.314;2022-09-12T07:18:58;101507.91;;;18.97
18161;BMP280;9205;52.032;4.314;2022-09-12T07:21:26;101503.53;;;18.99
18161;BMP280;9205;52.032;4.314;2022-09-12T07:23:55;101504.88;;;19.07
18161;BMP280;9205;52.032;4.314;2022-09-12T07:26:24;101507.38;;;19.09
18161;BMP280;9205;52.032;4.314;2022-09-12T07:28:53;101505.31;;;19.17
18161;BMP280;9205;52.032;4.314;2022-09-12T07:31:24;101506.78;;;19.22
18161;BMP280;9205;52.032;4.314;2022-09-12T07:33:52;101504.94;;;19.24
18161;BMP280;9205;52.032;4.314;2022-09-12T07:36:22;101504.69;;;19.30
18161;BMP280;9205;52.032;4.314;2022-09-12T07:38:53;101503.63;;;19.34
18161;BMP280;9205;52.032;4.314;2022-09-12T07:41:23;101501.75;;;19.38
18161;BMP280;9205;52.032;4.314;2022-09-12T07:43:54;101507.78;;;19.37
18161;BMP280;9205;52.032;4.314;2022-09-12T07:46:24;101503.88;;;19.47
18161;BMP280;9205;52.032;4.314;2022-09-12T07:48:52;101502.13;;;19.47
18161;BMP280;9205;52.032;4.314;2022-09-12T07:51:39;101507.84;;;19.54
18161;BMP280;9205;52.032;4.314;2022-09-12T07:54:18;101504.97;;;19.60
18161;BMP280;9205;52.032;4.314;2022-09-12T07:56:45;101506.34;;;19.66
18161;BMP280;9205;52.032;4.314;2022-09-12T07:59:12;101506.19;;;19.69
18161;BMP280;9205;52.032;4.314;2022-09-12T08:01:40;101500.91;;;19.72
18161;BMP280;9205;52.032;4.314;2022-09-12T08:04:07;101512.81;;;19.75
18161;BMP280;9205;52.032;4.314;2022-09-12T08:06:35;101512.41;;;19.82
18161;BMP280;9205;52.032;4.314;2022-09-12T08:09:04;101511.28;;;19.88
18161;BMP280;9205;52.032;4.314;2022-09-12T08:11:33;101510.25;;;19.92
18161;BMP280;9205;52.032;4.314;2022-09-12T08:14:00;101509.28;;;19.94
18161;BMP280;9205;52.032;4.314;2022-09-12T08:16:31;101508.16;;;20.00
18161;BMP280;9205;52.032;4.314;2022-09-12T08:19:02;101512.38;;;20.01
18161;BMP280;9205;52.032;4.314;2022-09-12T08:21:31;101508.63;;;20.08
18161;BMP280;9205;52.032;4.314;2022-09-12T08:24:01;101500.94;;;20.06
18161;BMP280;9205;52.032;4.314;2022-09-12T08:26:32;101501.47;;;20.13
18161;BMP280;9205;52.032;4.314;2022-09-12T08:29:00;101505.63;;;20.15
18161;BMP280;9205;52.032;4.314;2022-09-12T08:31:27;101504.59;;;20.19
18161;BMP280;9205;52.032;4.314;2022-09-12T08:33:57;101502.59;;;20.24
18161;BMP280;9205;52.032;4.314;2022-09-12T08:36:28;101510.94;;;20.29
18161;BMP280;9205;52.032;4.314;2022-09-12T08:38:57;101507.22;;;20.35
18161;BMP280;9205;52.032;4.314;2022-09-12T08:41:30;101507.66;;;20.43
18161;BMP280;9205;52.032;4.314;2022-09-12T08:44:22;101501.50;;;20.45
18161;BMP280;9205;52.032;4.314;2022-09-12T08:47:15;101495.28;;;20.49
18161;BMP280;9205;52.032;4.314;2022-09-12T08:49:56;101492.69;;;20.49
18161;BMP280;9205;52.032;4.314;2022-09-12T08:52:44;101501.47;;;20.62
18161;BMP280;9205;52.032;4.314;2022-09-12T08:55:28;101494.97;;;20.70
18161;BMP280;9205;52.032;4.314;2022-09-12T08:57:57;101496.59;;;20.73
18161;BMP280;9205;52.032;4.314;2022-09-12T09:00:36;101495.53;;;20.77
18161;BMP280;9205;52.032;4.314;2022-09-12T09:03:40;101491.88;;;20.81
18161;BMP280;9205;52.032;4.314;2022-09-12T09:06:39;101502.13;;;20.82
18161;BMP280;9205;52.032;4.314;2022-09-12T09:09:20;101485.72;;;20.83
18161;BMP280;9205;52.032;4.314;2022-09-12T09:12:03;101487.19;;;20.87
18161;BMP280;9205;52.032;4.314;2022-09-12T09:14:56;101482.66;;;20.92
18161;BMP280;9205;52.032;4.314;2022-09-12T09:17:36;101483.31;;;20.96
18161;BMP280;9205;52.032;4.314;2022-09-12T09:20:16;101487.38;;;21.00
18161;BMP280;9205;52.032;4.314;2022-09-12T09:22:52;101477.97;;;20.99
18161;BMP280;9205;52.032;4.314;2022-09-12T09:25:28;101477.81;;;21.02
18161;BMP280;9205;52.032;4.314;2022-09-12T09:28:01;101465.66;;;21.04
18161;BMP280;9205;52.032;4.314;2022-09-12T09:30:33;101467.91;;;21.10
18161;BMP280;9205;52.032;4.314;2022-09-12T09:33:04;101462.47;;;21.14
18161;BMP280;9205;52.032;4.314;2022-09-12T09:35:43;101457.97;;;21.18
18161;BMP280;9205;52.032;4.314;2022-09-12T09:38:23;101455.03;;;21.24
18161;BMP280;9205;52.032;4.314;2022-09-12T09:41:08;101451.38;;;21.27
18161;BMP280;9205;52.032;4.314;2022-09-12T09:43:38;101450.19;;;21.33
18161;BMP280;9205;52.032;4.314;2022-09-12T09:46:06;101450.03;;;21.36
18161;BMP280;9205;52.032;4.314;2022-09-12T09:48:36;101448.84;;;21.41
18161;BMP280;9205;52.032;4.314;2022-09-12T09:51:06;101446.41;;;21.54
18161;BMP280;9205;52.032;4.314;2022-09-12T09:53:42;101445.84;;;21.64
18161;BMP280;9205;52.032;4.314;2022-09-12T09:56:26;101443.66;;;21.72
18161;BMP280;9205;52.032;4.314;2022-09-12T09:58:53;101438.47;;;21.72
18161;BMP280;9205;52.032;4.314;2022-09-12T10:01:30;101435.13;;;21.70
18161;BMP280;9205;52.032;4.314;2022-09-12T10:03:57;101432.44;;;21.72
18161;BMP280;9205;52.032;4.314;2022-09-12T10:06:30;101428.84;;;21.74
18161;BMP280;9205;52.032;4.314;2022-09-12T10:09:17;101426.09;;;21.77
18161;BMP280;9205;52.032;4.314;2022-09-12T10:11:47;101423.50;;;21.77
18161;BMP280;9205;52.032;4.314;2022-09-12T10:14:32;101425.56;;;21.86
18161;BMP280;9205;52.032;4.314;2022-09-12T10:17:20;101422.97;;;21.86
18161;BMP280;9205;52.032;4.314;2022-09-12T10:19:49;101413.94;;;21.93
18161;BMP280;9205;52.032;4.314;2022-09-12T10:22:19;101419.50;;;22.01
18161;BMP280;9205;52.032;4.314;2022-09-12T10:24:49;101415.72;;;22.07
18161;BMP280;9205;52.032;4.314;2022-09-12T10:27:23;101417.00;;;22.13
18161;BMP280;9205;52.032;4.314;2022-09-12T10:29:55;101427.25;;;22.15
18161;BMP280;9205;52.032;4.314;2022-09-12T10:32:26;101427.16;;;22.16
18161;BMP280;9205;52.032;4.314;2022-09-12T10:34:59;101418.28;;;22.20
18161;BMP280;9205;52.032;4.314;2022-09-12T10:37:32;101417.69;;;22.31
18161;BMP280;9205;52.032;4.314;2022-09-12T10:40:04;101414.16;;;22.46
18161;BMP280;9205;52.032;4.314;2022-09-12T10:42:49;101414.81;;;22.49
18161;BMP280;9205;52.032;4.314;2022-09-12T10:45:26;101410.19;;;22.54
18161;BMP280;9205;52.032;4.314;2022-09-12T10:47:57;101414.50;;;22.68
18161;BMP280;9205;52.032;4.314;2022-09-12T10:50:33;101415.41;;;22.67
18161;BMP280;9205;52.032;4.314;2022-09-12T10:53:19;101418.28;;;22.76
18161;BMP280;9205;52.032;4.314;2022-09-12T10:56:05;101416.88;;;22.85
18161;BMP280;9205;52.032;4.314;2022-09-12T10:59:07;101419.06;;;22.90
18161;BMP280;9205;52.032;4.314;2022-09-12T11:01:40;101422.00;;;22.98
18161;BMP280;9205;52.032;4.314;2022-09-12T11:04:26;101422.03;;;23.12
18161;BMP280;9205;52.032;4.314;2022-09-12T11:07:14;101410.25;;;23.33
18161;BMP280;9205;52.032;4.314;2022-09-12T11:09:53;101413.09;;;23.55
18161;BMP280;9205;52.032;4.314;2022-09-12T11:12:32;101413.75;;;23.71
18161;BMP280;9205;52.032;4.314;2022-09-12T11:15:30;101401.09;;;24.41
18161;BMP280;9205;52.032;4.314;2022-09-12T11:18:14;101408.59;;;25.17
18161;BMP280;9205;52.032;4.314;2022-09-12T11:21:18;101396.34;;;26.10
18161;BMP280;9205;52.032;4.314;2022-09-12T11:24:20;101393.91;;;26.83
18161;BMP280;9205;52.032;4.314;2022-09-12T11:27:24;101395.28;;;27.09
18161;BMP280;9205;52.032;4.314;2022-09-12T11:29:58;101398.06;;;27.28
18161;BMP280;9205;52.032;4.314;2022-09-12T11:32:52;101390.72;;;27.22
18161;BMP280;9205;52.032;4.314;2022-09-12T11:35:27;101394.69;;;27.16
18161;BMP280;9205;52.032;4.314;2022-09-12T11:38:29;101379.84;;;27.17
18161;BMP280;9205;52.032;4.314;2022-09-12T11:41:02;101385.09;;;27.06
18161;BMP280;9205;52.032;4.314;2022-09-12T11:43:38;101384.41;;;26.93
18161;BMP280;9205;52.032;4.314;2022-09-12T11:46:16;101380.56;;;26.66
18161;BMP280;9205;52.032;4.314;2022-09-12T11:48:54;101386.50;;;26.35
18161;BMP280;9205;52.032;4.314;2022-09-12T11:51:28;101375.03;;;25.94
18161;BMP280;9205;52.032;4.314;2022-09-12T11:54:11;101380.41;;;25.69
18161;BMP280;9205;52.032;4.314;2022-09-12T11:56:44;101373.75;;;25.54
18161;BMP280;9205;52.032;4.314;2022-09-12T11:59:27;101370.41;;;25.41
18161;BMP280;9205;52.032;4.314;2022-09-12T12:01:58;101359.88;;;25.32
18161;BMP280;9205;52.032;4.314;2022-09-12T12:04:36;101354.66;;;25.32
18161;BMP280;9205;52.032;4.314;2022-09-12T12:07:10;101358.56;;;25.37
18161;BMP280;9205;52.032;4.314;2022-09-12T12:09:48;101355.63;;;25.41
18161;BMP280;9205;52.032;4.314;2022-09-12T12:12:21;101355.88;;;25.49
18161;BMP280;9205;52.032;4.314;2022-09-12T12:14:53;101357.44;;;25.63
18161;BMP280;9205;52.032;4.314;2022-09-12T12:17:24;101349.66;;;25.63
18161;BMP280;9205;52.032;4.314;2022-09-12T12:20:02;101345.72;;;25.57
18161;BMP280;9205;52.032;4.314;2022-09-12T12:22:30;101348.91;;;25.50
18161;BMP280;9205;52.032;4.314;2022-09-12T12:25:21;101348.53;;;25.43
18161;BMP280;9205;52.032;4.314;2022-09-12T12:27:56;101339.53;;;25.36
18161;BMP280;9205;52.032;4.314;2022-09-12T12:31:00;101349.88;;;25.49
18161;BMP280;9205;52.032;4.314;2022-09-12T12:33:54;101345.59;;;25.48
18161;BMP280;9205;52.032;4.314;2022-09-12T12:36:45;101336.72;;;25.39
18161;BMP280;9205;52.032;4.314;2022-09-12T12:39:55;101338.75;;;25.47
18161;BMP280;9205;52.032;4.314;2022-09-12T12:46:08;101327.41;;;25.48
18161;BMP280;9205;52.032;4.314;2022-09-12T12:49:10;101326.06;;;25.42
18161;BMP280;9205;52.032;4.314;2022-09-12T12:51:58;101326.91;;;25.43
18161;BMP280;9205;52.032;4.314;2022-09-12T12:54:51;101330.47;;;25.42
18161;BMP280;9205;52.032;4.314;2022-09-12T12:57:31;101330.56;;;25.40
18161;BMP280;9205;52.032;4.314;2022-09-12T13:00:05;101319.81;;;25.34
18161;BMP280;9205;52.032;4.314;2022-09-12T13:02:39;101323.69;;;25.29
18161;BMP280;9205;52.032;4.314;2022-09-12T13:05:19;101314.94;;;25.30
18161;BMP280;9205;52.032;4.314;2022-09-12T13:07:55;101316.97;;;25.37
18161;BMP280;9205;52.032;4.314;2022-09-12T13:10:26;101303.59;;;25.41
18161;BMP280;9205;52.032;4.314;2022-09-12T13:12:58;101303.75;;;25.40
18161;BMP280;9205;52.032;4.314;2022-09-12T13:15:47;101304.69;;;25.39
18161;BMP280;9205;52.032;4.314;2022-09-12T13:18:22;101310.81;;;25.38
18161;BMP280;9205;52.032;4.314;2022-09-12T13:20:59;101305.13;;;25.33
18161;BMP280;9205;52.032;4.314;2022-09-12T13:23:31;101285.75;;;25.37
18161;BMP280;9205;52.032;4.314;2022-09-12T13:26:01;101277.00;;;25.38
18161;BMP280;9205;52.032;4.314;2022-09-12T13:28:29;101273.47;;;25.39
18161;BMP280;9205;52.032;4.314;2022-09-12T13:31:04;101272.78;;;25.48
18161;BMP280;9205;52.032;4.314;2022-09-12T13:33:36;101267.47;;;25.38
18161;BMP280;9205;52.032;4.314;2022-09-12T13:36:41;101282.09;;;25.29
18161;BMP280;9205;52.032;4.314;2022-09-12T13:39:20;101276.25;;;25.14
18161;BMP280;9205;52.032;4.314;2022-09-12T13:42:29;101271.31;;;25.22
18161;BMP280;9205;52.032;4.314;2022-09-12T13:45:05;101256.44;;;25.24
18161;BMP280;9205;52.032;4.314;2022-09-12T13:47:37;101254.44;;;25.38
18161;BMP280;9205;52.032;4.314;2022-09-12T13:50:13;101257.91;;;25.50
18161;BMP280;9205;52.032;4.314;2022-09-12T13:52:48;101258.94;;;25.58
18161;BMP280;9205;52.032;4.314;2022-09-12T13:55:34;101256.47;;;25.57
18161;BMP280;9205;52.032;4.314;2022-09-12T13:58:04;101247.94;;;25.55
18161;BMP280;9205;52.032;4.314;2022-09-12T14:00:33;101253.53;;;25.61
18161;BMP280;9205;52.032;4.314;2022-09-12T14:03:18;101261.91;;;25.65
18161;BMP280;9205;52.032;4.314;2022-09-12T14:06:07;101255.88;;;25.64
18161;BMP280;9205;52.032;4.314;2022-09-12T14:08:38;101254.94;;;25.65
18161;BMP280;9205;52.032;4.314;2022-09-12T14:11:10;101249.72;;;25.65
18161;BMP280;9205;52.032;4.314;2022-09-12T14:13:38;101246.53;;;25.62
18161;BMP280;9205;52.032;4.314;2022-09-12T14:16:05;101248.56;;;25.47
18161;BMP280;9205;52.032;4.314;2022-09-12T14:18:38;101256.56;;;25.44
18161;BMP280;9205;52.032;4.314;2022-09-12T14:21:19;101254.56;;;25.48
18161;BMP280;9205;52.032;4.314;2022-09-12T14:23:53;101242.63;;;25.45
18161;BMP280;9205;52.032;4.314;2022-09-12T14:26:23;101243.69;;;25.43
18161;BMP280;9205;52.032;4.314;2022-09-12T14:28:53;101249.25;;;25.38
18161;BMP280;9205;52.032;4.314;2022-09-12T14:31:24;101234.72;;;25.36
18161;BMP280;9205;52.032;4.314;2022-09-12T14:34:08;101230.94;;;25.40
18161;BMP280;9205;52.032;4.314;2022-09-12T14:36:41;101235.06;;;25.42
18161;BMP280;9205;52.032;4.314;2022-09-12T14:39:22;101231.38;;;25.45
18161;BMP280;9205;52.032;4.314;2022-09-12T14:42:03;101231.88;;;25.39
18161;BMP280;9205;52.032;4.314;2022-09-12T14:44:32;101238.94;;;25.37
18161;BMP280;9205;52.032;4.314;2022-09-12T14:47:12;101242.28;;;25.28
18161;BMP280;9205;52.032;4.314;2022-09-12T14:49:41;101236.09;;;25.18
18161;BMP280;9205;52.032;4.314;2022-09-12T14:52:25;101226.84;;;25.14
18161;BMP280;9205;52.032;4.314;2022-09-12T14:55:02;101225.19;;;25.13